Time;durP1;ratioP1;P1;durP2;ratioP2;P2;SDS_P1;SDS_P2;PMS_P1;PMS_P2;Temp;Humidity;BMP_temperature;BMP_pressure;BME280_temperature;BME280_humidity;BME280_pressure;Samples;Min_cycle;Max_cycle;Signal;HPM_P1;HPM_P2
2021/07/13 00:00:49;;;;;;;;;6.75;5.00;;;;;19.67;60.01;100614.81;5100896;27;46112;-60
2021/07/13 00:03:14;;;;;;;;;4.75;4.00;;;;;19.71;60.62;100607.53;5101309;27;45301;-60
2021/07/13 00:05:40;;;;;;;;;5.00;5.00;;;;;19.60;60.39;100597.47;5100925;27;45450;-60
2021/07/13 00:08:06;;;;;;;;;6.00;6.00;;;;;19.70;60.42;100595.13;5101172;27;45246;-60
2021/07/13 00:10:37;;;;;;;;;7.75;6.00;;;;;19.68;60.21;100589.91;5100718;27;46007;-60
2021/07/13 00:13:03;;;;;;;;;4.00;4.00;;;;;19.67;60.20;100601.50;5078973;28;45287;-60
2021/07/13 00:15:33;;;;;;;;;7.25;6.00;;;;;19.64;60.42;100594.53;5095336;27;45304;-60
2021/07/13 00:17:59;;;;;;;;;6.00;6.00;;;;;19.63;60.96;100597.28;5100769;27;45384;-60
2021/07/13 00:20:25;;;;;;;;;7.00;6.75;;;;;19.62;60.37;100596.44;5081895;27;45463;-60
2021/07/13 00:22:50;;;;;;;;;7.00;7.00;;;;;19.60;60.39;100598.31;5100805;27;45218;-61
2021/07/13 00:25:17;;;;;;;;;4.75;4.75;;;;;19.62;60.77;100616.88;5100624;27;45283;-59
2021/07/13 00:27:43;;;;;;;;;10.00;9.50;;;;;19.59;60.91;100611.75;5100607;27;45488;-59
2021/07/13 00:30:11;;;;;;;;;7.00;6.00;;;;;19.56;60.96;100603.88;5100313;27;46691;-59
2021/07/13 00:32:37;;;;;;;;;8.00;6.00;;;;;19.54;60.40;100592.47;5100597;27;45174;-61
2021/07/13 00:35:04;;;;;;;;;9.00;8.50;;;;;19.51;61.12;100592.63;5100502;27;45326;-60
2021/07/13 00:37:30;;;;;;;;;7.00;7.00;;;;;19.50;60.76;100591.78;5100439;27;45532;-61
2021/07/13 00:39:55;;;;;;;;;10.00;10.00;;;;;19.49;60.84;100568.72;5100211;27;47003;-60
2021/07/13 00:42:21;;;;;;;;;8.00;6.75;;;;;19.46;61.07;100558.25;5100452;27;45258;-60
2021/07/13 00:44:47;;;;;;;;;8.50;8.50;;;;;19.45;60.99;100549.38;5100621;27;45358;-60
2021/07/13 00:47:17;;;;;;;;;9.25;8.75;;;;;19.44;60.87;100547.66;5100475;27;45326;-61
2021/07/13 00:49:45;;;;;;;;;9.25;8.00;;;;;19.44;61.18;100547.66;5100099;27;46373;-61
2021/07/13 00:52:11;;;;;;;;;11.25;10.00;;;;;19.45;61.08;100546.72;5100385;27;45196;-61
2021/07/13 00:54:37;;;;;;;;;10.00;9.00;;;;;19.42;61.37;100554.88;5100399;27;45468;-61
2021/07/13 00:57:08;;;;;;;;;10.75;9.75;;;;;19.43;60.86;100555.72;5100265;27;45244;-61
2021/07/13 00:59:34;;;;;;;;;12.50;10.25;;;;;19.43;61.07;100553.06;5102990;27;45356;-61
2021/07/13 01:01:59;;;;;;;;;10.75;9.75;;;;;19.44;61.12;100557.47;5103842;27;45225;-60
2021/07/13 01:04:25;;;;;;;;;11.50;10.25;;;;;19.43;60.93;100556.63;5103813;27;45141;-60
2021/07/13 01:07:42;;;;;;;;;12.25;12.25;;;;;19.41;61.10;100545.16;5103694;27;45147;-60
2021/07/13 01:10:10;;;;;;;;;14.75;14.75;;;;;19.39;61.00;100535.53;5077326;27;45897;-60
2021/07/13 01:12:59;;;;;;;;;16.50;12.25;;;;;19.38;60.93;100542.66;5103435;27;45453;-60
2021/07/13 01:15:30;;;;;;;;;13.25;12.00;;;;;19.38;61.00;100550.66;5103717;27;45329;-60
2021/07/13 01:18:02;;;;;;;;;14.25;12.75;;;;;19.38;60.98;100565.78;5103589;27;45348;-60
2021/07/13 01:20:43;;;;;;;;;17.25;12.50;;;;;19.38;61.03;100571.97;5102990;27;45420;-60
2021/07/13 01:23:25;;;;;;;;;13.25;12.25;;;;;19.40;61.24;100558.59;5103581;27;45502;-60
2021/07/13 01:26:14;;;;;;;;;15.75;14.25;;;;;19.33;60.86;100532.28;5103439;27;45322;-60
2021/07/13 01:28:43;;;;;;;;;19.75;16.00;;;;;19.40;60.58;100532.78;5103256;27;45642;-60
2021/07/13 01:31:19;;;;;;;;;17.25;16.75;;;;;19.41;61.10;100539.84;5103174;27;46103;-60
2021/07/13 01:33:52;;;;;;;;;16.50;15.00;;;;;19.40;60.67;100551.44;5103204;27;45451;-60
2021/07/13 01:36:30;;;;;;;;;22.25;18.25;;;;;19.42;61.07;100557.56;5103153;27;45273;-60
2021/07/13 01:38:59;;;;;;;;;18.50;17.75;;;;;19.41;60.58;100558.50;5090696;27;45241;-60
2021/07/13 01:41:27;;;;;;;;;16.75;15.50;;;;;19.43;60.55;100569.94;5103172;27;46360;-61
2021/07/13 01:43:54;;;;;;;;;19.00;15.25;;;;;19.43;60.87;100575.28;5102970;27;45355;-60
2021/07/13 01:46:21;;;;;;;;;23.50;19.75;;;;;19.43;60.89;100577.06;5103273;27;45273;-60
2021/07/13 01:48:48;;;;;;;;;23.00;21.25;;;;;19.43;60.96;100579.72;5103160;27;45251;-60
2021/07/13 01:51:15;;;;;;;;;24.75;17.25;;;;;19.42;60.53;100578.00;5084344;27;45576;-60
2021/07/13 01:53:43;;;;;;;;;21.75;21.00;;;;;19.43;60.98;100571.72;5103008;27;45205;-60
2021/07/13 01:56:10;;;;;;;;;20.50;17.50;;;;;19.43;60.50;100564.59;5103067;27;45291;-60
2021/07/13 01:58:37;;;;;;;;;22.75;21.50;;;;;19.43;60.83;100572.59;5102829;27;45399;-60
2021/07/13 02:01:10;;;;;;;;;19.00;18.00;;;;;19.45;60.53;100575.19;5102768;27;45246;-60
2021/07/13 02:03:38;;;;;;;;;21.25;19.75;;;;;19.48;60.89;100583.00;5102763;27;45378;-60
2021/07/13 02:06:04;;;;;;;;;20.50;20.00;;;;;19.49;60.78;100572.25;5102740;27;45190;-60
2021/07/13 02:08:34;;;;;;;;;24.75;20.75;;;;;19.51;60.81;100564.19;5102782;27;45230;-60
2021/07/13 02:10:59;;;;;;;;;21.25;20.50;;;;;19.52;60.48;100571.25;5101934;27;45366;-60
2021/07/13 02:13:25;;;;;;;;;20.25;18.75;;;;;19.55;60.93;100565.72;5102619;27;45252;-60
2021/07/13 02:15:50;;;;;;;;;18.00;18.00;;;;;19.55;60.78;100567.56;5102895;27;45287;-60
2021/07/13 02:18:15;;;;;;;;;21.00;18.25;;;;;19.50;61.03;100565.13;5102732;27;45524;-60
2021/07/13 02:20:41;;;;;;;;;16.50;15.75;;;;;19.53;60.51;100564.09;5102124;27;46081;-60
2021/07/13 02:23:07;;;;;;;;;18.75;16.00;;;;;19.54;60.85;100544.50;5102650;27;45406;-60
2021/07/13 02:25:33;;;;;;;;;19.00;17.75;;;;;19.53;60.80;100542.78;5102672;27;45208;-60
2021/07/13 02:28:46;;;;;;;;;18.75;16.75;;;;;19.55;60.55;100555.06;5102430;27;45496;-60
2021/07/13 02:31:28;;;;;;;;;16.25;14.25;;;;;19.54;60.74;100556.00;5039187;28;45949;-60
2021/07/13 02:34:05;;;;;;;;;16.25;15.25;;;;;19.55;60.51;100570.22;5095701;27;45374;-60
2021/07/13 02:36:34;;;;;;;;;18.50;17.50;;;;;19.56;60.86;100572.78;5102203;27;45345;-60
2021/07/13 02:39:01;;;;;;;;;19.75;14.00;;;;;19.56;60.65;100567.47;5102409;27;45273;-60
2021/07/13 02:41:27;;;;;;;;;15.25;15.25;;;;;19.56;60.48;100556.81;5102114;27;45280;-60
2021/07/13 02:43:55;;;;;;;;;20.25;18.75;;;;;19.57;60.73;100545.19;5102113;27;45361;-60
2021/07/13 02:46:22;;;;;;;;;17.50;12.75;;;;;19.58;60.41;100551.38;5102414;27;45366;-60
2021/07/13 02:48:51;;;;;;;;;15.75;14.50;;;;;19.57;60.74;100554.97;5102200;27;45311;-60
2021/07/13 02:51:18;;;;;;;;;15.25;14.50;;;;;19.57;60.58;100560.31;5101807;27;45501;-60
2021/07/13 02:53:45;;;;;;;;;16.00;13.50;;;;;19.57;60.49;100566.53;5102066;27;45322;-60
2021/07/13 02:56:13;;;;;;;;;12.50;10.00;;;;;19.58;60.71;100572.69;5102078;27;45294;-60
2021/07/13 02:58:40;;;;;;;;;15.75;14.00;;;;;19.59;60.80;100574.44;5101822;27;45268;-60
2021/07/13 03:01:07;;;;;;;;;13.75;12.50;;;;;19.57;60.53;100565.63;5101831;27;45393;-60
2021/07/13 03:03:34;;;;;;;;;12.50;12.50;;;;;19.61;60.79;100575.22;5101776;27;45662;-60
2021/07/13 03:06:02;;;;;;;;;14.00;12.75;;;;;19.61;60.50;100568.06;5101760;27;45490;-60
2021/07/13 03:08:27;;;;;;;;;13.75;12.50;;;;;19.63;60.87;100578.63;5101842;27;45565;-60
2021/07/13 03:10:55;;;;;;;;;14.75;13.50;;;;;19.63;60.30;100581.31;5101588;27;46257;-60
2021/07/13 03:13:22;;;;;;;;;12.25;12.25;;;;;19.65;60.54;100585.59;5101766;27;45295;-59
2021/07/13 03:15:49;;;;;;;;;10.00;10.00;;;;;19.67;60.13;100582.00;5101742;27;45262;-60
2021/07/13 03:18:15;;;;;;;;;13.25;12.25;;;;;19.67;60.47;100572.19;5083718;27;45647;-60
2021/07/13 03:20:42;;;;;;;;;21.75;15.50;;;;;19.69;60.71;100556.13;5082736;27;47870;-60
2021/07/13 03:23:09;;;;;;;;;15.00;13.50;;;;;19.68;60.69;100559.72;5100566;27;45241;-60
2021/07/13 03:25:40;;;;;;;;;14.25;12.75;;;;;19.67;60.57;100550.00;5083254;27;45410;-60
2021/07/13 03:28:06;;;;;;;;;13.50;13.50;;;;;19.63;60.54;100539.53;5101356;27;45403;-60
2021/07/13 03:30:33;;;;;;;;;17.00;14.75;;;;;19.64;60.34;100529.72;5101247;27;46439;-61
2021/07/13 03:33:00;;;;;;;;;14.25;11.50;;;;;19.64;60.18;100533.22;5101472;27;45233;-60
2021/07/13 03:35:26;;;;;;;;;11.00;11.00;;;;;19.64;60.25;100541.22;5083100;27;45298;-60
2021/07/13 03:37:53;;;;;;;;;16.75;15.50;;;;;19.66;60.74;100538.50;5101084;27;45456;-61
2021/07/13 03:40:24;;;;;;;;;15.75;15.50;;;;;19.61;60.63;100529.91;5101267;27;45383;-60
2021/07/13 03:42:51;;;;;;;;;15.00;13.75;;;;;19.62;60.31;100535.16;5101251;27;45242;-60
2021/07/13 03:45:18;;;;;;;;;14.25;13.75;;;;;19.60;60.32;100534.34;5101209;27;45425;-60
2021/07/13 03:47:51;;;;;;;;;14.00;13.00;;;;;19.60;60.09;100538.84;5082913;27;45548;-60
2021/07/13 03:50:19;;;;;;;;;13.25;13.00;;;;;19.60;60.34;100533.50;5100829;27;45429;-60
2021/07/13 03:52:44;;;;;;;;;15.25;13.25;;;;;19.60;60.13;100549.50;5101077;27;45324;-60
2021/07/13 03:55:12;;;;;;;;;14.25;13.50;;;;;19.61;60.20;100540.56;5101329;27;45315;-59
2021/07/13 03:57:39;;;;;;;;;13.00;11.75;;;;;19.60;60.65;100538.84;5101061;27;45308;-60
2021/07/13 04:00:17;;;;;;;;;16.50;13.00;;;;;19.61;60.50;100548.56;5100767;27;45279;-60
2021/07/13 04:02:44;;;;;;;;;14.75;13.00;;;;;19.61;60.31;100545.91;5101122;27;45369;-60
2021/07/13 04:05:10;;;;;;;;;11.25;11.25;;;;;19.61;60.23;100546.75;5100927;27;45424;-60
2021/07/13 04:07:36;;;;;;;;;14.00;13.25;;;;;19.60;60.31;100546.84;5100799;27;45310;-60
2021/07/13 04:10:04;;;;;;;;;14.25;10.50;;;;;19.61;60.43;100546.75;5082363;27;46911;-60
2021/07/13 04:12:30;;;;;;;;;13.75;13.50;;;;;19.61;60.32;100548.56;5100537;27;45315;-60
2021/07/13 04:14:55;;;;;;;;;14.75;12.00;;;;;19.59;60.40;100540.63;5100997;27;45565;-60
2021/07/13 04:17:20;;;;;;;;;13.75;11.75;;;;;19.58;60.39;100538.91;5100778;27;45485;-60
2021/07/13 04:19:46;;;;;;;;;14.50;14.25;;;;;19.56;60.70;100530.16;5100460;27;46246;-60
2021/07/13 04:22:11;;;;;;;;;13.00;11.25;;;;;19.56;60.91;100537.25;5100677;27;45230;-60
2021/07/13 04:24:36;;;;;;;;;13.75;13.00;;;;;19.55;60.71;100538.22;5100887;27;45261;-60
2021/07/13 04:27:02;;;;;;;;;15.50;14.75;;;;;19.55;60.66;100540.91;5100740;27;45323;-60
2021/07/13 04:29:28;;;;;;;;;14.75;12.00;;;;;19.46;60.41;100534.28;5082564;27;47625;-60
2021/07/13 04:31:53;;;;;;;;;16.50;13.75;;;;;19.53;60.99;100548.94;5100385;27;45278;-60
2021/07/13 04:34:20;;;;;;;;;18.00;15.00;;;;;19.51;60.64;100548.19;5106204;27;45439;-60
2021/07/13 04:36:45;;;;;;;;;15.75;13.25;;;;;19.52;60.87;100555.25;5107060;27;45407;-60
2021/07/13 04:39:11;;;;;;;;;16.75;14.50;;;;;19.48;60.87;100554.56;5107275;27;45598;-60
2021/07/13 04:41:36;;;;;;;;;16.25;14.50;;;;;19.46;60.71;100548.44;5107332;27;45317;-60
2021/07/13 04:44:02;;;;;;;;;14.50;13.25;;;;;19.47;60.83;100544.84;5107410;27;45162;-60
2021/07/13 04:46:28;;;;;;;;;14.25;14.25;;;;;19.48;60.74;100535.03;5107426;27;45219;-60
2021/07/13 04:48:55;;;;;;;;;18.25;14.50;;;;;19.51;61.23;100539.31;5105956;27;46955;-59
2021/07/13 04:51:21;;;;;;;;;17.25;15.25;;;;;19.49;61.12;100526.94;5106974;27;45350;-60
2021/07/13 04:53:46;;;;;;;;;15.00;14.25;;;;;19.51;60.84;100528.66;5107404;27;45504;-59
2021/07/13 04:56:12;;;;;;;;;19.50;17.25;;;;;19.50;61.08;100530.47;5106928;27;45331;-60
2021/07/13 04:58:37;;;;;;;;;12.50;12.00;;;;;19.50;60.72;100533.16;5107031;27;45361;-60
2021/07/13 05:01:02;;;;;;;;;15.50;15.50;;;;;19.49;61.03;100534.94;5107028;27;45260;-60
2021/07/13 05:03:28;;;;;;;;;21.50;17.50;;;;;19.53;60.97;100548.09;5107119;27;45366;-60
2021/07/13 05:05:53;;;;;;;;;16.75;14.50;;;;;19.54;61.16;100557.81;5088433;27;45303;-59
2021/07/13 05:08:21;;;;;;;;;21.00;19.75;;;;;19.50;60.86;100546.47;5107222;27;45438;-60
2021/07/13 05:10:47;;;;;;;;;18.75;17.50;;;;;19.52;60.80;100555.25;5106896;27;45190;-60
2021/07/13 05:13:12;;;;;;;;;18.00;14.25;;;;;19.51;60.65;100552.66;5085249;28;45360;-60
2021/07/13 05:15:40;;;;;;;;;21.00;18.00;;;;;19.49;61.04;100553.59;5102722;27;45256;-59
2021/07/13 05:18:11;;;;;;;;;19.75;18.00;;;;;19.48;61.26;100554.56;5106968;27;45314;-60
2021/07/13 05:20:37;;;;;;;;;19.50;17.00;;;;;19.51;60.98;100560.66;5106314;27;45307;-60
2021/07/13 05:23:09;;;;;;;;;18.00;16.50;;;;;19.52;61.37;100567.69;5106849;27;45166;-60
2021/07/13 05:25:36;;;;;;;;;20.25;19.25;;;;;19.55;60.68;100572.88;5106657;27;45348;-60
2021/07/13 05:28:02;;;;;;;;;20.75;19.00;;;;;19.54;61.19;100571.16;5088118;27;47169;-60
2021/07/13 05:30:27;;;;;;;;;22.00;17.75;;;;;19.53;60.84;100569.44;5106571;27;45294;-60
2021/07/13 05:32:53;;;;;;;;;10.75;10.75;;;;;19.55;61.17;100568.41;5107047;27;45243;-60
2021/07/13 05:35:19;;;;;;;;;19.75;17.00;;;;;19.56;60.74;100569.25;5088099;27;45497;-60
2021/07/13 05:37:46;;;;;;;;;18.25;17.75;;;;;19.60;60.93;100578.81;5106323;27;46271;-60
2021/07/13 05:40:12;;;;;;;;;19.75;16.25;;;;;19.61;60.77;100577.88;5106554;27;45472;-60
2021/07/13 05:42:38;;;;;;;;;21.25;19.50;;;;;19.63;61.14;100586.63;5106583;27;45480;-60
2021/07/13 05:45:04;;;;;;;;;19.50;17.25;;;;;19.63;60.74;100586.63;5103625;27;45365;-60
2021/07/13 05:47:30;;;;;;;;;18.75;18.00;;;;;19.62;61.16;100577.78;5103039;27;45271;-59
2021/07/13 05:49:55;;;;;;;;;18.00;18.00;;;;;19.67;60.78;100580.19;5102683;27;45263;-60
2021/07/13 05:52:21;;;;;;;;;17.50;16.00;;;;;19.69;60.74;100570.31;5103218;27;45422;-60
2021/07/13 05:54:46;;;;;;;;;18.50;15.75;;;;;19.72;60.62;100578.16;5084712;27;45491;-60
2021/07/13 05:57:12;;;;;;;;;16.50;14.25;;;;;19.72;61.19;100574.59;5102840;27;46176;-60
2021/07/13 05:59:37;;;;;;;;;18.50;15.75;;;;;19.74;61.10;100578.06;5102847;27;45287;-60
2021/07/13 06:02:03;;;;;;;;;16.00;15.00;;;;;19.73;61.17;100587.00;5081499;28;45273;-60
2021/07/13 06:04:28;;;;;;;;;17.50;16.25;;;;;19.73;60.97;100579.84;5099607;27;45498;-60
2021/07/13 06:06:54;;;;;;;;;19.75;17.50;;;;;19.72;61.14;100575.47;5102925;27;46012;-60
2021/07/13 06:09:19;;;;;;;;;15.50;15.00;;;;;19.73;61.30;100574.50;5102903;27;45429;-60
2021/07/13 06:11:44;;;;;;;;;15.00;15.00;;;;;19.74;61.14;100576.25;5102807;27;45454;-60
2021/07/13 06:14:10;;;;;;;;;20.75;18.00;;;;;19.76;60.88;100570.81;5102763;27;45327;-60
2021/07/13 06:16:35;;;;;;;;;17.50;16.75;;;;;19.74;61.08;100581.56;5102760;27;46861;-60
2021/07/13 06:19:00;;;;;;;;;17.75;15.75;;;;;19.74;60.96;100573.56;5102616;27;45984;-59
2021/07/13 06:21:26;;;;;;;;;18.25;17.00;;;;;19.77;61.09;100578.75;5102691;27;45249;-60
2021/07/13 06:23:51;;;;;;;;;17.00;16.25;;;;;19.78;60.94;100571.59;5084177;27;45575;-60
2021/07/13 06:26:17;;;;;;;;;20.00;17.25;;;;;19.79;61.40;100562.66;5084175;27;45864;-60
2021/07/13 06:28:42;;;;;;;;;20.50;18.75;;;;;19.80;61.17;100561.72;5102339;27;45379;-60
2021/07/13 06:31:07;;;;;;;;;17.75;15.75;;;;;19.80;60.85;100561.72;5102747;27;45329;-61
2021/07/13 06:33:32;;;;;;;;;20.75;17.25;;;;;19.80;61.00;100567.06;5102468;27;45552;-60
2021/07/13 06:35:58;;;;;;;;;19.50;18.25;;;;;19.80;60.94;100559.91;5100819;27;46998;-60
2021/07/13 06:38:24;;;;;;;;;22.50;19.25;;;;;19.81;61.41;100561.63;5087217;27;45341;-60
2021/07/13 06:40:49;;;;;;;;;27.75;22.50;;;;;19.86;61.44;100565.88;5102367;27;45296;-61
2021/07/13 06:43:15;;;;;;;;;21.00;19.50;;;;;19.87;61.32;100563.09;5102018;27;45403;-62
2021/07/13 06:45:40;;;;;;;;;18.50;18.00;;;;;19.90;61.40;100565.63;5102287;27;46345;-65
2021/07/13 06:48:06;;;;;;;;;21.50;18.75;;;;;19.89;61.50;100560.38;5102060;27;45338;-64
2021/07/13 06:50:31;;;;;;;;;21.50;19.75;;;;;19.94;61.10;100560.97;5102061;27;45314;-63
2021/07/13 06:52:56;;;;;;;;;19.00;17.25;;;;;19.96;60.98;100559.94;5102320;27;45244;-64
2021/07/13 06:55:22;;;;;;;;;27.25;21.25;;;;;19.99;61.23;100548.25;5102251;27;47037;-63
2021/07/13 06:57:48;;;;;;;;;19.00;19.00;;;;;20.00;61.55;100549.97;5101632;27;45240;-63
2021/07/13 07:00:14;;;;;;;;;19.75;19.00;;;;;20.04;61.33;100556.00;5101976;27;45224;-63
2021/07/13 07:02:39;;;;;;;;;25.00;20.75;;;;;20.06;61.42;100551.41;5102021;27;45259;-63
2021/07/13 07:05:08;;;;;;;;;20.00;18.25;;;;;20.06;61.22;100552.28;5101682;27;45371;-63
2021/07/13 07:07:41;;;;;;;;;24.00;20.00;;;;;20.06;61.01;100549.63;5101733;27;45468;-63
2021/07/13 07:10:07;;;;;;;;;22.00;20.50;;;;;20.11;61.10;100547.53;5102095;27;45296;-63
2021/07/13 07:12:32;;;;;;;;;21.75;20.25;;;;;20.10;61.12;100531.59;5083415;27;45421;-64
2021/07/13 07:14:57;;;;;;;;;23.50;18.75;;;;;20.14;61.13;100528.69;5101740;27;45283;-63
2021/07/13 07:17:23;;;;;;;;;25.00;21.00;;;;;20.17;61.29;100524.97;5101692;27;45326;-63
2021/07/13 07:19:48;;;;;;;;;17.50;17.50;;;;;20.18;60.86;100523.19;5101404;27;45395;-63
2021/07/13 07:22:13;;;;;;;;;24.00;20.25;;;;;20.20;61.55;100531.94;5083255;27;45927;-63
2021/07/13 07:24:39;;;;;;;;;23.50;21.25;;;;;20.22;61.02;100541.56;5101891;27;46156;-63
2021/07/13 07:27:04;;;;;;;;;24.75;22.75;;;;;20.24;61.58;100552.19;5101325;27;45327;-63
2021/07/13 07:29:29;;;;;;;;;21.25;20.00;;;;;20.25;61.56;100557.41;5101650;27;45745;-63
2021/07/13 07:31:55;;;;;;;;;27.00;21.75;;;;;20.26;61.24;100556.47;5081927;27;45477;-63
2021/07/13 07:34:20;;;;;;;;;24.00;21.75;;;;;20.29;61.32;100561.63;5101145;27;45307;-64
2021/07/13 07:36:46;;;;;;;;;26.50;22.25;;;;;20.33;61.02;100569.47;5101107;27;45444;-63
2021/07/13 07:39:11;;;;;;;;;24.50;23.00;;;;;20.33;61.44;100575.66;5101397;27;45306;-64
2021/07/13 07:41:36;;;;;;;;;24.25;21.75;;;;;20.37;61.03;100574.50;5101167;27;45329;-63
2021/07/13 07:44:02;;;;;;;;;19.00;19.00;;;;;20.38;61.28;100570.91;5101095;27;45361;-63
2021/07/13 07:46:28;;;;;;;;;20.25;18.00;;;;;20.41;61.29;100577.88;5101297;27;45260;-64
2021/07/13 07:48:53;;;;;;;;;18.25;16.25;;;;;20.44;61.02;100580.38;5079578;28;45212;-62
2021/07/13 07:51:18;;;;;;;;;22.75;19.00;;;;;20.45;61.10;100584.75;5096484;27;45170;-63
2021/07/13 07:53:44;;;;;;;;;23.00;21.25;;;;;20.48;61.57;100579.25;5101075;27;45274;-64
2021/07/13 07:56:09;;;;;;;;;21.25;19.25;;;;;20.50;61.10;100580.00;5101064;27;45226;-64
2021/07/13 07:58:35;;;;;;;;;22.50;20.25;;;;;20.50;61.12;100565.78;5101072;27;45329;-63
2021/07/13 08:01:00;;;;;;;;;26.25;21.00;;;;;20.53;61.17;100569.16;5100988;27;45437;-64
2021/07/13 08:03:25;;;;;;;;;24.50;20.25;;;;;20.57;61.15;100572.50;5079235;28;48064;-63
2021/07/13 08:05:55;;;;;;;;;23.25;20.00;;;;;20.60;61.57;100581.19;5095703;27;45336;-64
2021/07/13 08:08:20;;;;;;;;;21.25;19.50;;;;;20.66;61.01;100581.78;5100279;27;45436;-64
2021/07/13 08:10:46;;;;;;;;;24.75;21.75;;;;;20.67;61.21;100584.34;5100746;27;45310;-64
2021/07/13 08:13:11;;;;;;;;;20.00;17.50;;;;;20.73;61.37;100591.19;5100504;27;46119;-64
2021/07/13 08:15:36;;;;;;;;;22.00;19.00;;;;;20.72;61.58;100584.97;5100580;27;45322;-64
2021/07/13 08:18:02;;;;;;;;;18.75;17.00;;;;;20.79;61.60;100598.81;5100898;27;45307;-64
2021/07/13 08:20:27;;;;;;;;;25.75;20.25;;;;;20.81;61.10;100596.91;5100277;27;45246;-64
2021/07/13 08:22:53;;;;;;;;;27.75;22.50;;;;;20.84;60.92;100598.53;5100501;27;46279;-64
2021/07/13 08:25:20;;;;;;;;;20.75;20.25;;;;;20.86;61.32;100594.81;5100495;27;45252;-64
2021/07/13 08:27:47;;;;;;;;;22.50;18.50;;;;;20.90;60.94;100600.84;5100638;27;45332;-64
2021/07/13 08:30:13;;;;;;;;;19.50;19.00;;;;;20.91;60.99;100598.06;5100205;27;45315;-64
2021/07/13 08:32:39;;;;;;;;;17.75;16.25;;;;;20.91;60.88;100591.88;5100488;27;46316;-64
2021/07/13 08:35:06;;;;;;;;;22.75;22.00;;;;;20.94;60.96;100599.69;5081545;27;45362;-64
2021/07/13 08:37:33;;;;;;;;;20.25;18.25;;;;;20.97;61.35;100601.31;5082189;27;45334;-63
2021/07/13 08:40:08;;;;;;;;;15.00;13.50;;;;;20.99;61.23;100607.44;5100284;27;45310;-63
2021/07/13 08:42:40;;;;;;;;;17.25;14.75;;;;;21.00;61.48;100593.16;5099939;27;46929;-64
2021/07/13 08:45:08;;;;;;;;;17.75;13.50;;;;;21.01;60.84;100603.72;5100201;27;45411;-64
2021/07/13 08:47:40;;;;;;;;;16.00;13.50;;;;;21.01;61.13;100598.38;5100339;27;45256;-63
2021/07/13 08:50:08;;;;;;;;;17.50;14.50;;;;;21.03;61.13;100593.81;5099816;27;45586;-64
2021/07/13 08:52:34;;;;;;;;;16.75;15.50;;;;;21.03;61.14;100591.16;5100151;27;46160;-64
2021/07/13 08:55:01;;;;;;;;;14.00;13.25;;;;;21.05;61.08;100591.06;5100090;27;45185;-63
2021/07/13 08:57:27;;;;;;;;;20.50;16.25;;;;;21.07;60.93;100586.50;5100398;27;45596;-64
2021/07/13 08:59:52;;;;;;;;;19.75;15.25;;;;;21.09;60.94;100588.13;5099902;27;45470;-63
2021/07/13 09:02:17;;;;;;;;;15.00;15.00;;;;;21.10;61.43;100592.47;5100281;27;46282;-64
2021/07/13 09:04:43;;;;;;;;;19.00;16.50;;;;;21.13;61.36;100601.28;5099649;27;45405;-64
2021/07/13 09:07:09;;;;;;;;;18.75;14.75;;;;;21.13;61.32;100599.47;5100354;27;45262;-64
2021/07/13 09:09:39;;;;;;;;;32.50;25.50;;;;;21.14;61.25;100603.00;5081774;27;45506;-64
2021/07/13 09:12:08;;;;;;;;;22.75;21.75;;;;;21.16;61.34;100609.13;5099858;27;46263;-64
2021/07/13 09:14:55;;;;;;;;;58.00;45.75;;;;;21.18;60.97;100615.19;5099917;27;45442;-64
2021/07/13 09:17:29;;;;;;;;;20.25;16.25;;;;;21.16;61.17;100615.31;5081696;27;45338;-64
2021/07/13 09:20:06;;;;;;;;;17.00;14.50;;;;;21.18;60.98;100618.75;5081702;27;45430;-64
2021/07/13 09:22:31;;;;;;;;;16.75;16.00;;;;;21.19;61.14;100616.94;5103286;27;45261;-64
2021/07/13 09:24:57;;;;;;;;;16.50;16.50;;;;;21.20;61.27;100622.19;5081579;28;45312;-64
2021/07/13 09:27:24;;;;;;;;;18.25;17.00;;;;;21.22;61.24;100622.94;5102437;27;45429;-65
2021/07/13 09:29:51;;;;;;;;;19.00;17.00;;;;;21.21;61.39;100623.06;5103368;27;46045;-64
2021/07/13 09:32:23;;;;;;;;;17.25;16.00;;;;;21.24;61.34;100623.72;5103049;27;47000;-64
2021/07/13 09:35:14;;;;;;;;;19.00;17.00;;;;;21.25;61.42;100614.72;5102927;27;45343;-65
2021/07/13 09:37:47;;;;;;;;;17.75;17.25;;;;;21.26;61.21;100619.13;5102226;27;45416;-64
2021/07/13 09:40:15;;;;;;;;;21.00;20.00;;;;;21.27;61.11;100625.34;5103105;27;45337;-64
2021/07/13 09:42:43;;;;;;;;;15.75;15.75;;;;;21.28;61.30;100621.69;5101804;27;46199;-64
2021/07/13 09:45:24;;;;;;;;;18.75;16.25;;;;;21.27;61.27;100618.19;5103004;27;45174;-64
2021/07/13 09:47:51;;;;;;;;;17.75;16.00;;;;;21.31;61.08;100620.66;5103232;27;45345;-64
2021/07/13 09:50:39;;;;;;;;;17.75;16.50;;;;;21.33;61.25;100622.28;5102941;27;45256;-64
2021/07/13 09:53:07;;;;;;;;;16.50;15.75;;;;;21.33;60.99;100624.09;5102716;27;47180;-64
2021/07/13 09:55:32;;;;;;;;;18.50;14.50;;;;;21.33;61.00;100630.28;5103005;27;45514;-64
2021/07/13 09:58:21;;;;;;;;;18.75;18.25;;;;;21.34;61.52;100629.34;5102984;27;45335;-64
2021/07/13 10:00:53;;;;;;;;;15.75;13.50;;;;;21.33;61.55;100634.78;5102983;27;45686;-65
2021/07/13 10:03:20;;;;;;;;;15.50;15.50;;;;;21.32;61.39;100633.94;5102740;27;46252;-64
2021/07/13 10:05:48;;;;;;;;;19.50;17.50;;;;;21.32;60.99;100633.06;5102469;27;45313;-64
2021/07/13 10:08:14;;;;;;;;;19.50;16.50;;;;;21.30;60.95;100638.50;5103049;27;45377;-64
2021/07/13 10:10:42;;;;;;;;;21.50;15.75;;;;;21.29;61.26;100633.28;5102643;27;45389;-64
2021/07/13 10:13:10;;;;;;;;;18.25;17.00;;;;;21.29;60.88;100636.78;5102472;27;46898;-65
2021/07/13 10:15:35;;;;;;;;;22.00;19.75;;;;;21.28;61.46;100635.06;5102498;27;45325;-65
2021/07/13 10:18:05;;;;;;;;;19.75;17.75;;;;;21.26;61.04;100637.84;5102798;27;45321;-65
2021/07/13 10:20:31;;;;;;;;;20.25;19.00;;;;;21.26;61.27;100639.66;5102221;27;46364;-65
2021/07/13 10:23:00;;;;;;;;;23.25;20.25;;;;;21.21;61.18;100637.25;5102445;27;46213;-65
2021/07/13 10:25:38;;;;;;;;;49.75;37.50;;;;;21.22;61.72;100643.44;5102150;27;45343;-65
2021/07/13 10:28:04;;;;;;;;;21.75;20.00;;;;;21.20;61.34;100638.19;5102433;27;45310;-65
2021/07/13 10:30:30;;;;;;;;;20.50;19.25;;;;;21.19;61.58;100632.97;5101714;27;45186;-64
2021/07/13 10:32:56;;;;;;;;;23.25;22.50;;;;;21.15;61.82;100634.97;5102421;27;45215;-66
2021/07/13 10:35:24;;;;;;;;;24.50;21.25;;;;;21.17;61.47;100642.88;5080269;28;45358;-64
2021/07/13 10:38:21;;;;;;;;;20.50;20.50;;;;;21.15;61.51;100647.47;5100837;27;45348;-64
2021/07/13 10:40:47;;;;;;;;;21.00;18.75;;;;;21.14;61.95;100645.75;5102003;27;45328;-65
2021/07/13 10:43:18;;;;;;;;;26.50;21.25;;;;;21.11;62.09;100642.28;5101914;27;46225;-65
2021/07/13 10:45:44;;;;;;;;;19.75;17.50;;;;;21.13;62.24;100641.34;5101920;27;45505;-64
2021/07/13 10:48:14;;;;;;;;;20.75;19.50;;;;;21.13;61.87;100636.00;5102083;27;45323;-64
2021/07/13 10:51:05;;;;;;;;;18.50;17.00;;;;;21.13;61.89;100631.53;5083425;27;45222;-65
2021/07/13 10:53:35;;;;;;;;;20.50;18.25;;;;;21.10;62.00;100634.38;5101853;27;46325;-65
2021/07/13 10:56:13;;;;;;;;;20.00;16.75;;;;;21.14;62.14;100640.41;5101895;27;45219;-65
2021/07/13 10:58:45;;;;;;;;;18.25;14.25;;;;;21.15;62.02;100631.44;5101816;27;45346;-65
2021/07/13 11:01:14;;;;;;;;;18.00;15.00;;;;;21.15;62.46;100628.75;5101902;27;45343;-64
2021/07/13 11:03:39;;;;;;;;;13.50;13.50;;;;;21.17;61.91;100629.50;5101935;27;45341;-66
2021/07/13 11:06:09;;;;;;;;;20.25;15.75;;;;;21.18;62.58;100633.91;5101468;27;45304;-65
2021/07/13 11:08:40;;;;;;;;;15.75;14.50;;;;;21.20;62.38;100632.88;5083671;27;45374;-66
2021/07/13 11:11:06;;;;;;;;;11.75;11.75;;;;;21.21;62.45;100631.91;5101649;27;45294;-65
2021/07/13 11:13:31;;;;;;;;;10.25;10.00;;;;;21.20;62.41;100635.53;5101683;27;46330;-65